Time,TemperatureF,DewpointF,PressureIn,WindDirection,WindDirectionDegrees,WindSpeedMPH,WindSpeedGustMPH,Humidity,HourlyPrecipIn,Conditions,Clouds,dailyrainin,SoftwareType,DateUTC
2013-02-19 00:01:00,24.7,4.8,30.06,NW,321,3.8,7.7,42,0.00,n/a,n/a,-99.99,Henriksen +1-Wire,2013-02-19 05:01:00,
2013-02-19 00:02:00,24.7,4.8,30.06,WNW,303,3.4,7.7,42,0.00,n/a,n/a,-99.99,Henriksen +1-Wire,2013-02-19 05:02:00,
2013-02-19 00:05:00,24.4,4.6,30.06,WNW,298,3.1,7.7,42,0.00,n/a,n/a,-99.99,Henriksen +1-Wire,2013-02-19 05:05:00,
2013-02-19 00:10:00,24.4,4.6,30.06,WNW,300,2.8,9.4,42,0.00,n/a,n/a,-99.99,Henriksen +1-Wire,2013-02-19 05:10:00,
2013-02-19 00:14:00,24.0,4.3,30.06,NW,305,3.0,9.4,42,0.00,n/a,n/a,-99.99,Henriksen +1-Wire,2013-02-19 05:14:00,
2013-02-19 00:20:00,23.4,3.8,30.06,WNW,301,3.0,6.3,42,0.00,n/a,n/a,-99.99,Henriksen +1-Wire,2013-02-19 05:20:00,
2013-02-19 00:26:00,23.3,3.9,30.06,NW,312,3.3,6.7,42,0.00,n/a,n/a,-99.99,Henriksen +1-Wire,2013-02-19 05:26:00,
2013-02-19 00:31:00,23.1,3.7,30.06,WNW,303,2.7,7.1,42,0.00,n/a,n/a,-99.99,Henriksen +1-Wire,2013-02-19 05:31:00,
2013-02-19 00:36:00,23.3,3.8,30.06,NW,313,3.3,7.4,42,0.00,n/a,n/a,-99.99,Henriksen +1-Wire,2013-02-19 05:36:00,
2013-02-19 00:42:00,23.5,3.8,30.06,NNW,327,2.2,7.4,42,0.00,n/a,n/a,-99.99,Henriksen +1-Wire,2013-02-19 05:42:00,
2013-02-19 00:47:00,23.1,3.4,30.06,NW,325,1.6,4.4,42,0.00,n/a,n/a,-99.99,Henriksen +1-Wire,2013-02-19 05:47:00,
2013-02-19 00:52:00,22.7,3.2,30.06,NW,312,2.2,5.5,42,0.00,n/a,n/a,-99.99,Henriksen +1-Wire,2013-02-19 05:52:00,
2013-02-19 00:57:00,22.5,3.1,30.06,NW,313,3.6,6.8,42,0.00,n/a,n/a,-99.99,Henriksen +1-Wire,2013-02-19 05:57:00,
2013-02-19 01:03:00,22.3,2.9,30.06,NW,311,2.5,8.7,42,0.00,n/a,n/a,-99.99,Henriksen +1-Wire,2013-02-19 06:03:00,
2013-02-19 01:08:00,22.2,2.9,30.06,NW,313,3.1,6.9,42,0.00,n/a,n/a,-99.99,Henriksen +1-Wire,2013-02-19 06:08:00,
2013-02-19 01:13:00,22.2,2.9,30.06,NW,306,3.1,6.5,42,0.00,n/a,n/a,-99.99,Henriksen +1-Wire,2013-02-19 06:13:00,
2013-02-19 01:18:00,22.2,2.9,30.06,NW,313,3.5,9.5,43,0.00,n/a,n/a,-99.99,Henriksen +1-Wire,2013-02-19 06:18:00,
2013-02-19 01:23:00,22.1,3.1,30.06,NW,310,3.0,9.5,43,0.00,n/a,n/a,-99.99,Henriksen +1-Wire,2013-02-19 06:23:00,
2013-02-19 01:29:00,22.0,3.5,30.06,NW,305,2.9,7.9,44,0.00,n/a,n/a,-99.99,Henriksen +1-Wire,2013-02-19 06:29:00,
2013-02-19 01:34:00,22.0,4.0,30.06,NW,312,4.5,8.2,45,0.00,n/a,n/a,-99.99,Henriksen +1-Wire,2013-02-19 06:34:00,
2013-02-19 01:40:00,22.1,4.2,30.06,NW,313,4.9,9.5,45,0.00,n/a,n/a,-99.99,Henriksen +1-Wire,2013-02-19 06:40:00,
2013-02-19 01:46:00,22.1,4.3,30.07,NW,315,4.9,9.5,45,0.00,n/a,n/a,-99.99,Henriksen +1-Wire,2013-02-19 06:46:00,
2013-02-19 01:51:00,22.4,4.6,30.07,NW,310,4.8,9.4,46,0.00,n/a,n/a,-99.99,Henriksen +1-Wire,2013-02-19 06:51:00,
2013-02-19 01:56:00,22.4,4.6,30.07,NW,322,4.1,9.0,46,0.00,n/a,n/a,-99.99,Henriksen +1-Wire,2013-02-19 06:56:00,
2013-02-19 02:01:00,22.4,4.7,30.07,NW,308,5.4,10.2,46,0.00,n/a,n/a,-99.99,Henriksen +1-Wire,2013-02-19 07:01:00,
2013-02-19 02:06:00,22.9,5.2,30.07,NW,319,6.3,10.3,46,0.00,n/a,n/a,-99.99,Henriksen +1-Wire,2013-02-19 07:06:00,
2013-02-19 02:11:00,23.0,5.4,30.07,NNW,333,5.6,10.3,46,0.00,n/a,n/a,-99.99,Henriksen +1-Wire,2013-02-19 07:11:00,
2013-02-19 02:16:00,23.3,5.8,30.07,NNW,327,3.7,10.1,46,0.00,n/a,n/a,-99.99,Henriksen +1-Wire,2013-02-19 07:16:00,
2013-02-19 02:21:00,23.5,6.4,30.07,NW,318,4.2,8.4,47,0.00,n/a,n/a,-99.99,Henriksen +1-Wire,2013-02-19 07:21:00,
2013-02-19 02:26:00,23.8,7.1,30.07,NW,318,4.6,9.4,48,0.00,n/a,n/a,-99.99,Henriksen +1-Wire,2013-02-19 07:26:00,
2013-02-19 02:32:00,23.9,7.9,30.07,NW,307,3.8,9.4,50,0.00,n/a,n/a,-99.99,Henriksen +1-Wire,2013-02-19 07:32:00,
2013-02-19 02:37:00,24.1,8.4,30.07,NW,312,3.8,10.5,50,0.00,n/a,n/a,-99.99,Henriksen +1-Wire,2013-02-19 07:37:00,
2013-02-19 02:42:00,24.0,8.4,30.07,NW,320,4.8,10.5,50,0.00,n/a,n/a,-99.99,Henriksen +1-Wire,2013-02-19 07:42:00,
2013-02-19 02:47:00,24.2,8.4,30.07,NW,324,3.7,9.4,50,0.00,n/a,n/a,-99.99,Henriksen +1-Wire,2013-02-19 07:47:00,
2013-02-19 02:52:00,23.9,8.2,30.07,NW,314,3.4,10.3,50,0.00,n/a,n/a,-99.99,Henriksen +1-Wire,2013-02-19 07:52:00,
2013-02-19 02:57:00,23.3,7.6,30.07,NW,315,3.9,10.3,50,0.00,n/a,n/a,-99.99,Henriksen +1-Wire,2013-02-19 07:57:00,
2013-02-19 03:03:00,23.1,7.7,30.08,NW,314,4.2,10.2,51,0.00,n/a,n/a,-99.99,Henriksen +1-Wire,2013-02-19 08:03:00,
2013-02-19 03:08:00,23.2,7.8,30.08,NW,314,3.5,10.9,51,0.00,n/a,n/a,-99.99,Henriksen +1-Wire,2013-02-19 08:08:00,
2013-02-19 03:13:00,23.1,7.9,30.08,NW,315,4.6,11.7,52,0.00,n/a,n/a,-99.99,Henriksen +1-Wire,2013-02-19 08:13:00,
2013-02-19 03:18:00,23.6,8.6,30.07,NW,317,4.0,11.7,52,0.00,n/a,n/a,-99.99,Henriksen +1-Wire,2013-02-19 08:18:00,
2013-02-19 03:24:00,24.0,8.9,30.07,NW,319,4.3,10.5,52,0.00,n/a,n/a,-99.99,Henriksen +1-Wire,2013-02-19 08:24:00,
2013-02-19 03:29:00,24.3,9.1,30.07,NW,320,5.1,11.8,52,0.00,n/a,n/a,-99.99,Henriksen +1-Wire,2013-02-19 08:29:00,
2013-02-19 03:34:00,24.5,9.3,30.08,NW,320,4.5,11.8,52,0.00,n/a,n/a,-99.99,Henriksen +1-Wire,2013-02-19 08:34:00,
2013-02-19 03:39:00,24.7,9.4,30.08,NW,319,5.6,9.5,52,0.00,n/a,n/a,-99.99,Henriksen +1-Wire,2013-02-19 08:39:00,
2013-02-19 03:44:00,24.8,9.4,30.08,NW,321,5.4,9.5,51,0.00,n/a,n/a,-99.99,Henriksen +1-Wire,2013-02-19 08:44:00,
2013-02-19 03:49:00,24.9,9.4,30.08,NW,322,4.1,8.6,51,0.00,n/a,n/a,-99.99,Henriksen +1-Wire,2013-02-19 08:49:00,
2013-02-19 03:54:00,24.9,9.3,30.08,NNW,332,3.5,7.9,51,0.00,n/a,n/a,-99.99,Henriksen +1-Wire,2013-02-19 08:54:00,
2013-02-19 03:59:00,24.4,9.0,30.08,NW,323,3.6,7.9,51,0.00,n/a,n/a,-99.99,Henriksen +1-Wire,2013-02-19 08:59:00,
2013-02-19 04:04:00,24.4,9.0,30.08,NW,317,4.0,9.1,51,0.00,n/a,n/a,-99.99,Henriksen +1-Wire,2013-02-19 09:04:00,
2013-02-19 04:09:00,24.7,9.2,30.08,NW,317,4.3,9.1,51,0.00,n/a,n/a,-99.99,Henriksen +1-Wire,2013-02-19 09:09:00,
2013-02-19 04:14:00,24.8,9.1,30.08,NW,311,3.1,11.0,51,0.00,n/a,n/a,-99.99,Henriksen +1-Wire,2013-02-19 09:14:00,
2013-02-19 04:20:00,24.8,9.0,30.08,NW,316,3.4,11.0,50,0.00,n/a,n/a,-99.99,Henriksen +1-Wire,2013-02-19 09:20:00,
2013-02-19 04:26:00,24.7,9.2,30.08,NW,321,4.1,9.5,51,0.00,n/a,n/a,-99.99,Henriksen +1-Wire,2013-02-19 09:26:00,
2013-02-19 04:31:00,24.7,9.3,30.08,NW,326,3.5,9.3,51,0.00,n/a,n/a,-99.99,Henriksen +1-Wire,2013-02-19 09:31:00,
2013-02-19 04:36:00,24.8,9.4,30.08,NW,321,4.3,8.7,51,0.00,n/a,n/a,-99.99,Henriksen +1-Wire,2013-02-19 09:36:00,
2013-02-19 04:41:00,24.8,9.5,30.08,NW,321,4.0,7.9,51,0.00,n/a,n/a,-99.99,Henriksen +1-Wire,2013-02-19 09:41:00,
2013-02-19 04:46:00,24.9,9.4,30.08,NW,325,4.4,8.2,51,0.00,n/a,n/a,-99.99,Henriksen +1-Wire,2013-02-19 09:46:00,
2013-02-19 04:51:00,25.0,9.1,30.08,NW,310,4.1,9.3,50,0.00,n/a,n/a,-99.99,Henriksen +1-Wire,2013-02-19 09:51:00,
2013-02-19 04:56:00,25.0,8.9,30.07,NW,325,4.1,9.3,50,0.00,n/a,n/a,-99.99,Henriksen +1-Wire,2013-02-19 09:56:00,
2013-02-19 05:01:00,24.9,8.5,30.07,NW,326,4.3,9.4,49,0.00,n/a,n/a,-99.99,Henriksen +1-Wire,2013-02-19 10:01:00,
2013-02-19 05:07:00,24.9,7.9,30.07,NW,324,3.3,9.4,48,0.00,n/a,n/a,-99.99,Henriksen +1-Wire,2013-02-19 10:07:00,
2013-02-19 05:12:00,24.8,7.6,30.07,NW,323,4.5,7.3,47,0.00,n/a,n/a,-99.99,Henriksen +1-Wire,2013-02-19 10:12:00,
2013-02-19 05:17:00,24.9,7.3,30.07,NNW,331,3.5,10.3,46,0.00,n/a,n/a,-99.99,Henriksen +1-Wire,2013-02-19 10:17:00,
2013-02-19 05:22:00,24.9,6.8,30.07,NW,310,3.4,10.3,45,0.00,n/a,n/a,-99.99,Henriksen +1-Wire,2013-02-19 10:22:00,
2013-02-19 05:27:00,24.9,6.7,30.07,NNW,332,2.6,6.6,45,0.00,n/a,n/a,-99.99,Henriksen +1-Wire,2013-02-19 10:27:00,
2013-02-19 05:32:00,24.9,6.6,30.07,NW,324,2.6,6.6,45,0.00,n/a,n/a,-99.99,Henriksen +1-Wire,2013-02-19 10:32:00,
2013-02-19 05:38:00,24.9,6.4,30.07,NNW,328,3.5,5.5,45,0.00,n/a,n/a,-99.99,Henriksen +1-Wire,2013-02-19 10:38:00,
2013-02-19 05:44:00,24.8,6.3,30.07,NW,326,3.3,5.3,45,0.00,n/a,n/a,-99.99,Henriksen +1-Wire,2013-02-19 10:44:00,
2013-02-19 05:49:00,24.8,6.3,30.06,NNW,329,3.1,6.5,45,0.00,n/a,n/a,-99.99,Henriksen +1-Wire,2013-02-19 10:49:00,
2013-02-19 05:54:00,24.8,6.2,30.06,NNW,336,2.1,6.5,44,0.00,n/a,n/a,-99.99,Henriksen +1-Wire,2013-02-19 10:54:00,
2013-02-19 05:59:00,24.7,6.1,30.06,NNW,336,1.7,4.0,44,0.00,n/a,n/a,-99.99,Henriksen +1-Wire,2013-02-19 10:59:00,
2013-02-19 06:04:00,24.8,5.8,30.06,NNW,340,2.2,5.5,44,0.00,n/a,n/a,-99.99,Henriksen +1-Wire,2013-02-19 11:04:00,
2013-02-19 06:09:00,24.8,5.6,30.05,NNW,341,2.6,5.5,43,0.00,n/a,n/a,-99.99,Henriksen +1-Wire,2013-02-19 11:09:00,
2013-02-19 06:14:00,24.7,5.7,30.05,North,350,2.5,5.1,43,0.00,n/a,n/a,-99.99,Henriksen +1-Wire,2013-02-19 11:14:00,
2013-02-19 06:19:00,23.8,5.2,30.05,North,0,1.4,5.1,44,0.00,n/a,n/a,-99.99,Henriksen +1-Wire,2013-02-19 11:19:00,
2013-02-19 06:24:00,23.2,5.6,30.04,NNE,13,0.7,3.5,46,0.00,n/a,n/a,-99.99,Henriksen +1-Wire,2013-02-19 11:24:00,
2013-02-19 06:30:00,23.4,6.3,30.04,North,351,1.9,4.7,47,0.00,n/a,n/a,-99.99,Henriksen +1-Wire,2013-02-19 11:30:00,
2013-02-19 06:36:00,24.0,7.0,30.04,North,2,1.2,4.7,48,0.00,n/a,n/a,-99.99,Henriksen +1-Wire,2013-02-19 11:36:00,
2013-02-19 06:41:00,24.2,7.2,30.05,NW,323,1.7,3.2,48,0.00,n/a,n/a,-99.99,Henriksen +1-Wire,2013-02-19 11:41:00,
2013-02-19 06:46:00,24.5,7.2,30.05,NW,324,0.7,3.2,47,0.00,n/a,n/a,-99.99,Henriksen +1-Wire,2013-02-19 11:46:00,
2013-02-19 06:51:00,24.7,6.9,30.06,NNW,328,0.3,2.6,46,0.00,n/a,n/a,-99.99,Henriksen +1-Wire,2013-02-19 11:51:00,
2013-02-19 06:56:00,24.4,6.3,30.06,NW,324,0.5,3.2,45,0.00,n/a,n/a,-99.99,Henriksen +1-Wire,2013-02-19 11:56:00,
2013-02-19 07:01:00,24.2,6.2,30.07,WSW,238,1.9,3.4,45,0.00,n/a,n/a,-99.99,Henriksen +1-Wire,2013-02-19 12:01:00,
2013-02-19 07:06:00,24.1,6.6,30.07,West,271,1.0,3.9,46,0.00,n/a,n/a,-99.99,Henriksen +1-Wire,2013-02-19 12:06:00,
2013-02-19 07:11:00,24.1,7.3,30.08,West,263,1.6,3.9,48,0.00,n/a,n/a,-99.99,Henriksen +1-Wire,2013-02-19 12:11:00,
2013-02-19 07:16:00,24.3,8.1,30.09,West,265,2.2,4.6,49,0.00,n/a,n/a,-99.99,Henriksen +1-Wire,2013-02-19 12:16:00,
2013-02-19 07:21:00,24.2,8.7,30.09,WSW,249,1.9,4.6,51,0.00,n/a,n/a,-99.99,Henriksen +1-Wire,2013-02-19 12:21:00,
2013-02-19 07:26:00,24.2,9.2,30.09,West,264,2.0,4.0,52,0.00,n/a,n/a,-99.99,Henriksen +1-Wire,2013-02-19 12:26:00,
2013-02-19 07:31:00,24.2,9.3,30.08,WSW,258,0.6,4.0,52,0.00,n/a,n/a,-99.99,Henriksen +1-Wire,2013-02-19 12:31:00,
2013-02-19 07:36:00,24.5,9.5,30.08,WSW,244,1.9,3.2,52,0.00,n/a,n/a,-99.99,Henriksen +1-Wire,2013-02-19 12:36:00,
2013-02-19 07:41:00,25.1,9.5,30.08,SW,230,1.3,3.2,51,0.00,n/a,n/a,-99.99,Henriksen +1-Wire,2013-02-19 12:41:00,
2013-02-19 07:46:00,25.6,9.3,30.08,WSW,242,0.7,3.2,49,0.00,n/a,n/a,-99.99,Henriksen +1-Wire,2013-02-19 12:46:00,
2013-02-19 07:52:00,26.0,9.5,30.07,WSW,239,0.8,3.2,49,0.00,n/a,n/a,-99.99,Henriksen +1-Wire,2013-02-19 12:52:00,
2013-02-19 07:57:00,26.2,9.7,30.07,WSW,252,0.1,2.4,49,0.00,n/a,n/a,-99.99,Henriksen +1-Wire,2013-02-19 12:57:00,
2013-02-19 08:02:00,26.4,9.6,30.07,WSW,242,0.1,2.4,48,0.00,n/a,n/a,-99.99,Henriksen +1-Wire,2013-02-19 13:02:00,
2013-02-19 08:07:00,26.4,9.2,30.07,SW,235,0.0,2.4,47,0.00,n/a,n/a,-99.99,Henriksen +1-Wire,2013-02-19 13:07:00,
2013-02-19 08:13:00,26.6,8.9,30.07,SW,234,0.0,0.8,46,0.00,n/a,n/a,-99.99,Henriksen +1-Wire,2013-02-19 13:13:00,
2013-02-19 08:18:00,27.3,9.4,30.06,WSW,251,0.7,2.3,46,0.00,n/a,n/a,-99.99,Henriksen +1-Wire,2013-02-19 13:18:00,
2013-02-19 08:23:00,27.7,9.5,30.06,WSW,245,0.7,2.8,46,0.00,n/a,n/a,-99.99,Henriksen +1-Wire,2013-02-19 13:23:00,
2013-02-19 08:28:00,27.9,9.5,30.06,West,259,2.0,3.1,45,0.00,n/a,n/a,-99.99,Henriksen +1-Wire,2013-02-19 13:28:00,
2013-02-19 08:33:00,28.2,9.7,30.06,SW,228,0.3,3.1,45,0.00,n/a,n/a,-99.99,Henriksen +1-Wire,2013-02-19 13:33:00,
2013-02-19 08:39:00,28.2,9.9,30.06,West,272,0.8,3.1,45,0.00,n/a,n/a,-99.99,Henriksen +1-Wire,2013-02-19 13:39:00,
2013-02-19 08:44:00,27.9,9.3,30.06,SW,233,1.3,3.1,45,0.00,n/a,n/a,-99.99,Henriksen +1-Wire,2013-02-19 13:44:00,
2013-02-19 08:49:00,28.3,9.3,30.06,WSW,238,2.3,3.7,44,0.00,n/a,n/a,-99.99,Henriksen +1-Wire,2013-02-19 13:49:00,
2013-02-19 08:54:00,28.8,9.3,30.06,SW,234,2.6,3.9,43,0.00,n/a,n/a,-99.99,Henriksen +1-Wire,2013-02-19 13:54:00,
2013-02-19 08:59:00,29.0,8.6,30.06,SW,236,2.6,4.7,42,0.00,n/a,n/a,-99.99,Henriksen +1-Wire,2013-02-19 13:59:00,
2013-02-19 09:05:00,29.5,8.6,30.06,SW,227,2.7,4.8,41,0.00,n/a,n/a,-99.99,Henriksen +1-Wire,2013-02-19 14:05:00,
2013-02-19 09:10:00,30.1,9.0,30.06,SW,232,0.5,4.8,40,0.00,n/a,n/a,-99.99,Henriksen +1-Wire,2013-02-19 14:10:00,
2013-02-19 09:16:00,30.3,9.0,30.06,West,264,0.1,2.8,40,0.00,n/a,n/a,-99.99,Henriksen +1-Wire,2013-02-19 14:16:00,
2013-02-19 09:21:00,30.2,8.5,30.06,WNW,290,0.1,2.4,39,0.00,n/a,n/a,-99.99,Henriksen +1-Wire,2013-02-19 14:21:00,
2013-02-19 09:26:00,30.0,8.4,30.06,WSW,246,0.0,1.0,40,0.00,n/a,n/a,-99.99,Henriksen +1-Wire,2013-02-19 14:26:00,
2013-02-19 09:31:00,30.4,9.3,30.06,SW,223,1.0,2.4,40,0.00,n/a,n/a,-99.99,Henriksen +1-Wire,2013-02-19 14:31:00,
2013-02-19 09:36:00,31.0,10.0,30.06,SW,231,1.8,3.9,41,0.00,n/a,n/a,-99.99,Henriksen +1-Wire,2013-02-19 14:36:00,
2013-02-19 09:42:00,31.2,9.5,30.05,SW,219,1.0,3.9,40,0.00,n/a,n/a,-99.99,Henriksen +1-Wire,2013-02-19 14:42:00,
2013-02-19 09:47:00,31.0,9.0,30.05,SW,222,1.8,3.7,39,0.00,n/a,n/a,-99.99,Henriksen +1-Wire,2013-02-19 14:47:00,
2013-02-19 09:52:00,31.0,8.9,30.05,SSW,204,1.9,4.0,39,0.00,n/a,n/a,-99.99,Henriksen +1-Wire,2013-02-19 14:52:00,
2013-02-19 09:57:00,31.0,8.8,30.05,SW,225,2.1,4.0,39,0.00,n/a,n/a,-99.99,Henriksen +1-Wire,2013-02-19 14:57:00,
2013-02-19 10:03:00,31.0,8.6,30.05,SW,223,1.8,4.0,38,0.00,n/a,n/a,-99.99,Henriksen +1-Wire,2013-02-19 15:03:00,
2013-02-19 10:08:00,31.1,8.7,30.05,SSW,209,3.5,5.5,38,0.00,n/a,n/a,-99.99,Henriksen +1-Wire,2013-02-19 15:08:00,
2013-02-19 10:13:00,31.0,8.9,30.05,South,188,3.3,5.5,39,0.00,n/a,n/a,-99.99,Henriksen +1-Wire,2013-02-19 15:13:00,
2013-02-19 10:18:00,31.0,9.6,30.06,South,187,4.2,6.4,40,0.00,n/a,n/a,-99.99,Henriksen +1-Wire,2013-02-19 15:18:00,
2013-02-19 10:23:00,31.1,10.9,30.05,SSW,193,3.5,6.4,42,0.00,n/a,n/a,-99.99,Henriksen +1-Wire,2013-02-19 15:23:00,
2013-02-19 10:28:00,31.5,12.1,30.05,South,190,4.1,6.9,44,0.00,n/a,n/a,-99.99,Henriksen +1-Wire,2013-02-19 15:28:00,
2013-02-19 10:33:00,32.0,12.8,30.05,South,186,3.1,6.9,44,0.00,n/a,n/a,-99.99,Henriksen +1-Wire,2013-02-19 15:33:00,
2013-02-19 10:38:00,32.4,13.3,30.05,South,189,3.7,6.1,44,0.00,n/a,n/a,-99.99,Henriksen +1-Wire,2013-02-19 15:38:00,
2013-02-19 10:43:00,32.7,13.4,30.05,SSW,192,3.5,7.1,44,0.00,n/a,n/a,-99.99,Henriksen +1-Wire,2013-02-19 15:43:00,
2013-02-19 10:48:00,33.1,13.5,30.04,SSW,195,4.1,7.1,44,0.00,n/a,n/a,-99.99,Henriksen +1-Wire,2013-02-19 15:48:00,
2013-02-19 10:53:00,33.2,14.0,30.04,South,186,4.3,6.9,44,0.00,n/a,n/a,-99.99,Henriksen +1-Wire,2013-02-19 15:53:00,
2013-02-19 10:58:00,33.1,14.6,30.04,South,189,6.3,7.9,46,0.00,n/a,n/a,-99.99,Henriksen +1-Wire,2013-02-19 15:58:00,
2013-02-19 11:03:00,33.0,14.9,30.03,South,187,4.6,8.0,47,0.00,n/a,n/a,-99.99,Henriksen +1-Wire,2013-02-19 16:03:00,
2013-02-19 11:08:00,33.2,15.4,30.03,SSW,197,3.7,8.0,47,0.00,n/a,n/a,-99.99,Henriksen +1-Wire,2013-02-19 16:08:00,
2013-02-19 11:14:00,33.4,15.9,30.03,South,191,4.8,7.3,48,0.00,n/a,n/a,-99.99,Henriksen +1-Wire,2013-02-19 16:14:00,
2013-02-19 11:20:00,33.3,16.0,30.03,SSW,194,3.3,7.3,48,0.00,n/a,n/a,-99.99,Henriksen +1-Wire,2013-02-19 16:20:00,
2013-02-19 11:26:00,33.3,16.4,30.02,SSW,192,3.9,6.7,49,0.00,n/a,n/a,-99.99,Henriksen +1-Wire,2013-02-19 16:26:00,
2013-02-19 11:31:00,33.4,16.7,30.02,SSW,193,3.2,7.1,49,0.00,n/a,n/a,-99.99,Henriksen +1-Wire,2013-02-19 16:31:00,
2013-02-19 11:36:00,33.5,16.8,30.02,SSW,193,3.4,7.1,50,0.00,n/a,n/a,-99.99,Henriksen +1-Wire,2013-02-19 16:36:00,
2013-02-19 11:41:00,33.7,17.4,30.02,South,188,3.8,7.1,50,0.00,n/a,n/a,-99.99,Henriksen +1-Wire,2013-02-19 16:41:00,
2013-02-19 11:46:00,34.1,18.0,30.02,SSW,193,3.8,7.1,51,0.00,n/a,n/a,-99.99,Henriksen +1-Wire,2013-02-19 16:46:00,
2013-02-19 11:52:00,34.3,18.3,30.02,South,185,4.7,6.5,51,0.00,n/a,n/a,-99.99,Henriksen +1-Wire,2013-02-19 16:52:00,
2013-02-19 11:57:00,34.5,18.7,30.02,South,189,4.3,7.9,52,0.00,n/a,n/a,-99.99,Henriksen +1-Wire,2013-02-19 16:57:00,
2013-02-19 12:02:00,34.6,18.9,30.01,South,185,4.4,7.9,52,0.00,n/a,n/a,-99.99,Henriksen +1-Wire,2013-02-19 17:02:00,
2013-02-19 12:07:00,34.6,19.1,30.01,South,190,3.8,7.1,52,0.00,n/a,n/a,-99.99,Henriksen +1-Wire,2013-02-19 17:07:00,
2013-02-19 12:12:00,35.0,19.7,30.01,SSW,195,2.8,7.1,53,0.00,n/a,n/a,-99.99,Henriksen +1-Wire,2013-02-19 17:12:00,
2013-02-19 12:17:00,35.4,20.3,30.00,SSW,193,4.4,6.8,54,0.00,n/a,n/a,-99.99,Henriksen +1-Wire,2013-02-19 17:17:00,
2013-02-19 12:23:00,35.4,21.0,29.99,SSW,197,3.8,8.7,55,0.00,n/a,n/a,-99.99,Henriksen +1-Wire,2013-02-19 17:23:00,
2013-02-19 12:33:00,35.6,21.7,29.99,SSW,196,3.9,6.3,56,0.00,n/a,n/a,-99.99,Henriksen +1-Wire,2013-02-19 17:33:00,
2013-02-19 12:39:00,35.7,22.1,29.99,SSW,198,3.9,7.1,57,0.00,n/a,n/a,-99.99,Henriksen +1-Wire,2013-02-19 17:39:00,
2013-02-19 12:44:00,35.8,22.2,29.98,SSW,197,3.9,7.1,57,0.00,n/a,n/a,-99.99,Henriksen +1-Wire,2013-02-19 17:44:00,
2013-02-19 12:49:00,36.2,22.4,29.98,SSW,200,2.9,7.1,57,0.00,n/a,n/a,-99.99,Henriksen +1-Wire,2013-02-19 17:49:00,
2013-02-19 12:55:00,36.6,22.9,29.98,South,177,1.6,7.1,57,0.00,n/a,n/a,-99.99,Henriksen +1-Wire,2013-02-19 17:55:00,
2013-02-19 13:00:00,36.8,22.9,29.97,South,178,3.2,6.3,56,0.00,n/a,n/a,-99.99,Henriksen +1-Wire,2013-02-19 18:00:00,
2013-02-19 13:06:00,37.1,22.7,29.97,South,186,2.9,6.3,55,0.00,n/a,n/a,-99.99,Henriksen +1-Wire,2013-02-19 18:06:00,
2013-02-19 13:12:00,37.5,22.8,29.96,South,171,3.8,6.3,54,0.00,n/a,n/a,-99.99,Henriksen +1-Wire,2013-02-19 18:12:00,
2013-02-19 13:17:00,37.8,23.1,29.96,South,175,2.3,6.3,55,0.00,n/a,n/a,-99.99,Henriksen +1-Wire,2013-02-19 18:17:00,
2013-02-19 13:23:00,38.2,23.7,29.96,SSE,163,2.8,5.6,55,0.00,n/a,n/a,-99.99,Henriksen +1-Wire,2013-02-19 18:23:00,
2013-02-19 13:28:00,38.5,24.3,29.96,SSE,163,3.6,5.6,56,0.00,n/a,n/a,-99.99,Henriksen +1-Wire,2013-02-19 18:28:00,
2013-02-19 13:33:00,38.5,24.8,29.95,SSE,165,3.1,6.9,57,0.00,n/a,n/a,-99.99,Henriksen +1-Wire,2013-02-19 18:33:00,
2013-02-19 13:39:00,38.6,25.9,29.94,South,181,3.3,7.1,59,0.00,n/a,n/a,-99.99,Henriksen +1-Wire,2013-02-19 18:39:00,
2013-02-19 13:44:00,38.6,26.8,29.94,South,190,5.0,7.3,62,0.00,n/a,n/a,-99.99,Henriksen +1-Wire,2013-02-19 18:44:00,
2013-02-19 13:49:00,38.5,28.0,29.94,South,188,6.7,10.5,65,0.00,n/a,n/a,-99.99,Henriksen +1-Wire,2013-02-19 18:49:00,
2013-02-19 13:54:00,38.2,28.9,29.93,South,191,7.4,10.5,69,0.00,n/a,n/a,-99.99,Henriksen +1-Wire,2013-02-19 18:54:00,
2013-02-19 13:59:00,37.9,29.7,29.93,SSW,193,6.2,10.3,71,0.00,n/a,n/a,-99.99,Henriksen +1-Wire,2013-02-19 18:59:00,
2013-02-19 14:04:00,37.7,30.3,29.93,SSW,192,7.2,10.7,74,0.00,n/a,n/a,-99.99,Henriksen +1-Wire,2013-02-19 19:04:00,
2013-02-19 14:09:00,37.5,30.7,29.93,South,189,6.8,11.1,76,0.00,n/a,n/a,-99.99,Henriksen +1-Wire,2013-02-19 19:09:00,
2013-02-19 14:14:00,37.4,31.1,29.93,SSW,196,5.3,11.1,77,0.00,n/a,n/a,-99.99,Henriksen +1-Wire,2013-02-19 19:14:00,
2013-02-19 14:19:00,37.4,31.4,29.93,SSW,196,6.0,8.9,78,0.00,n/a,n/a,-99.99,Henriksen +1-Wire,2013-02-19 19:19:00,
2013-02-19 14:24:00,37.4,31.7,29.93,SSW,201,4.2,9.5,79,0.00,n/a,n/a,-99.99,Henriksen +1-Wire,2013-02-19 19:24:00,
2013-02-19 14:30:00,37.5,32.1,29.93,SSW,197,3.2,6.3,80,0.00,n/a,n/a,-99.99,Henriksen +1-Wire,2013-02-19 19:30:00,
2013-02-19 14:36:00,37.5,32.3,29.91,South,186,2.6,5.5,81,0.00,n/a,n/a,-99.99,Henriksen +1-Wire,2013-02-19 19:36:00,
2013-02-19 14:41:00,37.6,32.5,29.91,South,174,3.3,5.6,81,0.00,n/a,n/a,-99.99,Henriksen +1-Wire,2013-02-19 19:41:00,
2013-02-19 14:46:00,37.6,32.5,29.91,South,179,2.1,7.2,81,0.00,n/a,n/a,-99.99,Henriksen +1-Wire,2013-02-19 19:46:00,
2013-02-19 14:51:00,37.7,32.6,29.91,SSE,149,3.6,7.2,81,0.00,n/a,n/a,-99.99,Henriksen +1-Wire,2013-02-19 19:51:00,
2013-02-19 14:57:00,37.8,32.8,29.90,SSE,162,2.8,6.7,81,0.00,n/a,n/a,-99.99,Henriksen +1-Wire,2013-02-19 19:57:00,
2013-02-19 15:02:00,38.0,33.0,29.90,SSE,160,3.6,5.6,82,0.00,n/a,n/a,-99.99,Henriksen +1-Wire,2013-02-19 20:02:00,
2013-02-19 15:07:00,38.1,33.3,29.89,South,175,2.4,5.9,82,0.00,n/a,n/a,-99.99,Henriksen +1-Wire,2013-02-19 20:07:00,
2013-02-19 15:12:00,38.2,33.5,29.89,South,183,2.9,5.9,83,0.00,n/a,n/a,-99.99,Henriksen +1-Wire,2013-02-19 20:12:00,
2013-02-19 15:18:00,38.3,34.0,29.88,South,176,2.6,5.5,84,0.00,n/a,n/a,-99.99,Henriksen +1-Wire,2013-02-19 20:18:00,
2013-02-19 15:23:00,38.4,34.2,29.88,South,170,3.4,5.5,84,0.00,n/a,n/a,-99.99,Henriksen +1-Wire,2013-02-19 20:23:00,
2013-02-19 15:28:00,38.5,34.6,29.87,SSE,163,4.2,6.4,85,0.00,n/a,n/a,-99.99,Henriksen +1-Wire,2013-02-19 20:28:00,
2013-02-19 15:33:00,38.5,34.9,29.87,SSW,198,3.6,7.5,86,0.00,n/a,n/a,-99.99,Henriksen +1-Wire,2013-02-19 20:33:00,
2013-02-19 15:39:00,38.5,35.2,29.87,SSW,195,3.1,7.5,87,0.00,n/a,n/a,-99.99,Henriksen +1-Wire,2013-02-19 20:39:00,
2013-02-19 15:44:00,38.5,35.4,29.87,SSW,198,4.2,7.1,88,0.00,n/a,n/a,-99.99,Henriksen +1-Wire,2013-02-19 20:44:00,
2013-02-19 15:49:00,38.4,35.5,29.86,SSW,196,5.0,7.9,89,0.00,n/a,n/a,-99.99,Henriksen +1-Wire,2013-02-19 20:49:00,
2013-02-19 15:54:00,38.3,35.6,29.86,SSW,196,4.9,7.9,90,0.00,n/a,n/a,-99.99,Henriksen +1-Wire,2013-02-19 20:54:00,
2013-02-19 16:00:00,38.2,35.7,29.85,SSW,194,8.1,10.5,90,0.00,n/a,n/a,-99.99,Henriksen +1-Wire,2013-02-19 21:00:00,
2013-02-19 16:06:00,38.3,35.9,29.84,South,188,10.0,13.4,90,0.00,n/a,n/a,-99.99,Henriksen +1-Wire,2013-02-19 21:06:00,
2013-02-19 18:12:00,38.4,36.9,29.78,SW,218,5.7,13.7,94,0.00,n/a,n/a,-99.99,Henriksen +1-Wire,2013-02-19 23:12:00,
2013-02-19 18:17:00,38.4,36.9,29.78,SW,216,6.6,10.7,94,0.00,n/a,n/a,-99.99,Henriksen +1-Wire,2013-02-19 23:17:00,
2013-02-19 18:22:00,38.3,37.0,29.78,SSW,208,6.3,10.7,94,0.00,n/a,n/a,-99.99,Henriksen +1-Wire,2013-02-19 23:22:00,
2013-02-19 18:27:00,38.3,37.1,29.77,SSW,213,6.0,9.8,95,0.00,n/a,n/a,-99.99,Henriksen +1-Wire,2013-02-19 23:27:00,
2013-02-19 18:32:00,38.3,37.2,29.77,SSW,205,5.4,9.8,95,0.00,n/a,n/a,-99.99,Henriksen +1-Wire,2013-02-19 23:32:00,
2013-02-19 18:37:00,38.3,37.2,29.76,SSW,213,6.2,11.1,95,0.00,n/a,n/a,-99.99,Henriksen +1-Wire,2013-02-19 23:37:00,
2013-02-19 18:42:00,38.4,37.4,29.76,SW,217,5.9,11.1,96,0.00,n/a,n/a,-99.99,Henriksen +1-Wire,2013-02-19 23:42:00,
2013-02-19 18:47:00,38.4,37.5,29.76,SW,216,5.4,10.2,96,0.00,n/a,n/a,-99.99,Henriksen +1-Wire,2013-02-19 23:47:00,
2013-02-19 18:52:00,38.4,37.6,29.75,SSW,211,5.2,10.2,96,0.00,n/a,n/a,-99.99,Henriksen +1-Wire,2013-02-19 23:52:00,
2013-02-19 18:57:00,38.4,37.6,29.75,SSW,212,4.9,9.4,96,0.00,n/a,n/a,-99.99,Henriksen +1-Wire,2013-02-19 23:57:00,
2013-02-19 19:02:00,38.4,37.6,29.74,SSW,208,4.7,8.7,97,0.00,n/a,n/a,-99.99,Henriksen +1-Wire,2013-02-20 00:02:00,
2013-02-19 19:07:00,38.4,37.7,29.74,SW,215,5.3,8.7,97,0.00,n/a,n/a,-99.99,Henriksen +1-Wire,2013-02-20 00:07:00,
2013-02-19 19:12:00,38.4,37.8,29.74,SSW,212,5.3,8.9,97,0.01,n/a,n/a,-99.99,Henriksen +1-Wire,2013-02-20 00:12:00,
2013-02-19 19:17:00,38.5,37.9,29.74,SSW,213,5.6,10.8,97,0.01,n/a,n/a,-99.99,Henriksen +1-Wire,2013-02-20 00:17:00,
2013-02-19 19:22:00,38.6,38.1,29.73,SW,216,6.0,10.8,98,0.01,n/a,n/a,-99.99,Henriksen +1-Wire,2013-02-20 00:22:00,
2013-02-19 19:27:00,38.6,38.2,29.73,SW,215,5.4,9.8,98,0.02,n/a,n/a,-99.99,Henriksen +1-Wire,2013-02-20 00:27:00,
2013-02-19 19:32:00,38.5,38.2,29.73,SSW,210,5.1,9.4,98,0.03,n/a,n/a,-99.99,Henriksen +1-Wire,2013-02-20 00:32:00,
2013-02-19 19:37:00,38.4,38.2,29.73,SW,216,5.6,9.3,99,0.03,n/a,n/a,-99.99,Henriksen +1-Wire,2013-02-20 00:37:00,
2013-02-19 19:42:00,38.3,38.2,29.72,SSW,192,4.4,9.3,99,0.04,n/a,n/a,-99.99,Henriksen +1-Wire,2013-02-20 00:42:00,
2013-02-19 19:47:00,38.4,38.3,29.72,SW,215,5.3,9.3,99,0.05,n/a,n/a,-99.99,Henriksen +1-Wire,2013-02-20 00:47:00,
2013-02-19 19:52:00,38.5,38.4,29.71,SSW,207,6.5,11.0,99,0.06,n/a,n/a,-99.99,Henriksen +1-Wire,2013-02-20 00:52:00,
2013-02-19 19:57:00,38.5,38.4,29.71,SSW,210,5.3,11.0,99,0.08,n/a,n/a,-99.99,Henriksen +1-Wire,2013-02-20 00:57:00,
2013-02-19 20:02:00,38.4,38.4,29.70,SSW,209,5.3,9.5,99,0.09,n/a,n/a,-99.99,Henriksen +1-Wire,2013-02-20 01:02:00,
2013-02-19 20:07:00,38.2,38.2,29.70,SSW,210,4.7,8.0,99,0.10,n/a,n/a,-99.99,Henriksen +1-Wire,2013-02-20 01:07:00,
2013-02-19 20:12:00,38.1,38.1,29.70,SSW,204,3.5,7.0,100,0.10,n/a,n/a,-99.99,Henriksen +1-Wire,2013-02-20 01:12:00,
2013-02-19 20:17:00,37.9,37.9,29.70,SSW,200,3.8,7.0,100,0.11,n/a,n/a,-99.99,Henriksen +1-Wire,2013-02-20 01:17:00,
2013-02-19 20:22:00,37.9,37.9,29.69,SSW,197,3.5,6.6,100,0.12,n/a,n/a,-99.99,Henriksen +1-Wire,2013-02-20 01:22:00,
2013-02-19 20:27:00,37.9,37.9,29.69,SSW,197,4.5,7.1,100,0.13,n/a,n/a,-99.99,Henriksen +1-Wire,2013-02-20 01:27:00,
2013-02-19 20:32:00,37.9,37.9,29.69,SW,215,4.1,7.1,100,0.13,n/a,n/a,-99.99,Henriksen +1-Wire,2013-02-20 01:32:00,
2013-02-19 20:37:00,38.1,38.1,29.68,SSW,203,3.9,7.2,100,0.14,n/a,n/a,-99.99,Henriksen +1-Wire,2013-02-20 01:37:00,
2013-02-19 20:42:00,38.1,32.3,29.67,SSW,213,4.7,7.4,79,0.15,n/a,n/a,-99.99,Henriksen +1-Wire,2013-02-20 01:42:00,
2013-02-19 20:47:00,38.2,26.8,29.67,SSW,210,4.4,7.4,63,0.15,n/a,n/a,-99.99,Henriksen +1-Wire,2013-02-20 01:47:00,
2013-02-19 20:52:00,38.5,30.1,29.67,SSW,212,4.5,7.0,71,0.16,n/a,n/a,-99.99,Henriksen +1-Wire,2013-02-20 01:52:00,
2013-02-19 20:57:00,38.6,33.9,29.66,SSW,207,3.1,7.0,83,0.15,n/a,n/a,-99.99,Henriksen +1-Wire,2013-02-20 01:57:00,
2013-02-19 21:02:00,38.5,35.9,29.66,SSW,207,3.8,6.5,90,0.16,n/a,n/a,-99.99,Henriksen +1-Wire,2013-02-20 02:02:00,
2013-02-19 21:08:00,38.4,36.9,29.65,SSW,200,5.8,10.5,94,0.17,n/a,n/a,-99.99,Henriksen +1-Wire,2013-02-20 02:08:00,
2013-02-19 21:13:00,38.5,37.6,29.64,South,189,10.4,15.0,96,0.17,n/a,n/a,-99.99,Henriksen +1-Wire,2013-02-20 02:13:00,
2013-02-19 21:18:00,38.6,38.1,29.63,South,189,9.3,17.2,97,0.17,n/a,n/a,-99.99,Henriksen +1-Wire,2013-02-20 02:18:00,
2013-02-19 21:23:00,38.7,38.3,29.62,South,188,12.7,19.6,98,0.19,n/a,n/a,-99.99,Henriksen +1-Wire,2013-02-20 02:23:00,
2013-02-19 21:28:00,38.8,38.5,29.61,South,190,11.5,19.6,99,0.19,n/a,n/a,-99.99,Henriksen +1-Wire,2013-02-20 02:28:00,
2013-02-19 21:33:00,38.8,38.7,29.60,SSW,196,11.7,18.8,99,0.17,n/a,n/a,-99.99,Henriksen +1-Wire,2013-02-20 02:33:00,
2013-02-19 21:39:00,38.9,38.8,29.59,SSW,197,9.3,17.2,99,0.16,n/a,n/a,-99.99,Henriksen +1-Wire,2013-02-20 02:39:00,
2013-02-19 21:44:00,38.9,38.8,29.58,SSW,198,9.9,14.7,99,0.15,n/a,n/a,-99.99,Henriksen +1-Wire,2013-02-20 02:44:00,
2013-02-19 21:49:00,38.9,38.8,29.57,SSW,196,9.0,14.7,99,0.13,n/a,n/a,-99.99,Henriksen +1-Wire,2013-02-20 02:49:00,
2013-02-19 21:55:00,38.8,38.8,29.57,SSW,196,8.4,19.0,99,0.11,n/a,n/a,-99.99,Henriksen +1-Wire,2013-02-20 02:55:00,
2013-02-19 22:00:00,38.8,38.8,29.58,SSW,204,6.5,19.0,100,0.10,n/a,n/a,-99.99,Henriksen +1-Wire,2013-02-20 03:00:00,
2013-02-19 22:06:00,38.7,38.7,29.58,SW,218,6.5,12.6,100,0.10,n/a,n/a,-99.99,Henriksen +1-Wire,2013-02-20 03:06:00,
2013-02-19 22:11:00,38.7,38.7,29.58,SSW,213,7.2,11.9,100,0.09,n/a,n/a,-99.99,Henriksen +1-Wire,2013-02-20 03:11:00,
2013-02-19 22:16:00,38.7,38.7,29.58,SW,219,6.6,11.2,100,0.10,n/a,n/a,-99.99,Henriksen +1-Wire,2013-02-20 03:16:00,
2013-02-19 22:21:00,38.7,38.7,29.57,SSW,211,5.2,11.2,100,0.09,n/a,n/a,-99.99,Henriksen +1-Wire,2013-02-20 03:21:00,
2013-02-19 22:26:00,38.7,38.7,29.57,SW,231,4.2,10.8,100,0.07,n/a,n/a,-99.99,Henriksen +1-Wire,2013-02-20 03:26:00,
2013-02-19 22:31:00,38.8,38.8,29.57,SW,236,4.1,8.7,100,0.08,n/a,n/a,-99.99,Henriksen +1-Wire,2013-02-20 03:31:00,
2013-02-19 22:36:00,39.0,39.0,29.57,SW,229,5.8,8.7,100,0.09,n/a,n/a,-99.99,Henriksen +1-Wire,2013-02-20 03:36:00,
2013-02-19 22:41:00,39.1,39.1,29.57,WSW,240,5.4,10.2,100,0.10,n/a,n/a,-99.99,Henriksen +1-Wire,2013-02-20 03:41:00,
2013-02-19 22:46:00,39.2,39.2,29.58,WSW,246,3.4,10.2,100,0.11,n/a,n/a,-99.99,Henriksen +1-Wire,2013-02-20 03:46:00,
2013-02-19 22:51:00,39.2,39.2,29.58,SW,234,4.5,10.3,100,0.12,n/a,n/a,-99.99,Henriksen +1-Wire,2013-02-20 03:51:00,
2013-02-19 22:56:00,39.1,39.1,29.58,SW,236,4.2,10.3,100,0.12,n/a,n/a,-99.99,Henriksen +1-Wire,2013-02-20 03:56:00,
2013-02-19 23:01:00,39.1,39.1,29.57,WSW,238,2.4,6.6,100,0.12,n/a,n/a,-99.99,Henriksen +1-Wire,2013-02-20 04:01:00,
2013-02-19 23:06:00,38.9,38.9,29.58,WSW,238,1.5,6.6,100,0.11,n/a,n/a,-99.99,Henriksen +1-Wire,2013-02-20 04:06:00,
2013-02-19 23:11:00,38.7,38.7,29.58,West,265,0.0,3.2,100,0.11,n/a,n/a,-99.99,Henriksen +1-Wire,2013-02-20 04:11:00,
2013-02-19 23:16:00,38.5,38.5,29.56,WNW,301,1.0,1.6,100,0.09,n/a,n/a,-99.99,Henriksen +1-Wire,2013-02-20 04:16:00,
2013-02-19 23:21:00,38.3,38.3,29.55,North,7,1.2,2.0,100,0.09,n/a,n/a,-99.99,Henriksen +1-Wire,2013-02-20 04:21:00,
2013-02-19 23:26:00,38.3,38.3,29.55,North,1,0.0,2.0,100,0.08,n/a,n/a,-99.99,Henriksen +1-Wire,2013-02-20 04:26:00,
2013-02-19 23:31:00,38.2,38.2,29.54,North,8,0.0,1.2,100,0.07,n/a,n/a,-99.99,Henriksen +1-Wire,2013-02-20 04:31:00,
2013-02-19 23:36:00,38.2,38.2,29.54,South,177,0.0,0.0,100,0.06,n/a,n/a,-99.99,Henriksen +1-Wire,2013-02-20 04:36:00,
2013-02-19 23:41:00,38.2,38.2,29.53,South,171,0.0,0.0,100,0.06,n/a,n/a,-99.99,Henriksen +1-Wire,2013-02-20 04:41:00,
2013-02-19 23:46:00,38.2,38.2,29.53,South,182,0.3,1.9,100,0.05,n/a,n/a,-99.99,Henriksen +1-Wire,2013-02-20 04:46:00,
2013-02-19 23:51:00,38.1,38.1,29.53,SSW,197,0.3,2.4,100,0.04,n/a,n/a,-99.99,Henriksen +1-Wire,2013-02-20 04:51:00,
2013-02-19 23:57:00,37.9,37.9,29.53,SSW,210,0.0,2.4,100,0.04,n/a,n/a,-99.99,Henriksen +1-Wire,2013-02-20 04:57:00,